createdAt,value
2018-02-19T00:02:09.307Z,24.90
2018-02-19T00:04:38.559Z,23.20
2018-02-19T00:07:07.708Z,23.00
2018-02-19T00:09:36.988Z,24.60
2018-02-19T00:12:06.242Z,24.10
2018-02-19T00:14:34.742Z,24.43
2018-02-19T00:17:03.263Z,24.70
2018-02-19T00:19:32.406Z,24.97
2018-02-19T00:22:01.108Z,25.20
2018-02-19T00:24:29.590Z,23.60
2018-02-19T00:26:57.966Z,22.53
2018-02-19T00:29:26.501Z,25.53
2018-02-19T00:31:55.195Z,25.60
2018-02-19T00:34:23.569Z,27.07
2018-02-19T00:36:51.929Z,24.23
2018-02-19T00:39:22.015Z,24.80
2018-02-19T00:41:50.576Z,23.70
2018-02-19T00:44:19.163Z,24.57
2018-02-19T00:46:47.686Z,25.63
2018-02-19T00:49:16.856Z,27.17
2018-02-19T00:51:45.411Z,26.27
2018-02-19T00:54:16.930Z,25.37
2018-02-19T00:56:46.209Z,24.80
2018-02-19T00:59:14.684Z,25.50
2018-02-19T01:01:43.845Z,24.50
2018-02-19T01:04:12.244Z,24.93
2018-02-19T01:06:42.488Z,26.20
2018-02-19T01:09:11.629Z,28.10
2018-02-19T01:11:39.987Z,25.40
2018-02-19T01:14:08.361Z,25.33
2018-02-19T01:16:37.677Z,24.13
2018-02-19T01:19:06.171Z,24.90
2018-02-19T01:21:34.634Z,27.70
2018-02-19T01:24:03.159Z,26.37
2018-02-19T01:26:31.556Z,26.00
2018-02-19T01:29:00.092Z,26.53
2018-02-19T01:31:28.472Z,27.50
2018-02-19T01:33:57.130Z,25.67
2018-02-19T01:36:25.488Z,25.03
2018-02-19T01:38:54.812Z,26.50
2018-02-19T01:41:23.203Z,26.47
2018-02-19T01:43:51.584Z,27.30
2018-02-19T01:46:19.959Z,26.97
2018-02-19T01:48:49.130Z,27.40
2018-02-19T01:51:17.506Z,25.87
2018-02-19T01:53:46.944Z,27.90
2018-02-19T01:56:15.575Z,26.80
2018-02-19T01:58:44.012Z,28.30
2018-02-19T02:01:12.220Z,29.63
2018-02-19T02:03:42.323Z,27.73
2018-02-19T02:06:10.990Z,26.57
2018-02-19T02:08:39.352Z,27.50
2018-02-19T02:11:07.837Z,26.93
2018-02-19T02:13:36.373Z,25.70
2018-02-19T02:16:04.731Z,29.97
2018-02-19T02:18:33.179Z,27.90
2018-02-19T02:21:01.236Z,28.20
2018-02-19T02:23:29.737Z,27.40
2018-02-19T02:25:58.269Z,27.77
2018-02-19T02:28:27.415Z,28.40
2018-02-19T02:30:55.782Z,30.23
2018-02-19T02:33:24.452Z,30.20
2018-02-19T02:35:53.064Z,30.43
2018-02-19T02:38:21.588Z,29.27
2018-02-19T02:40:49.962Z,29.10
2018-02-19T02:43:18.101Z,29.90
2018-02-19T02:45:46.622Z,29.60
2018-02-19T02:48:15.814Z,28.90
2018-02-19T02:50:45.428Z,30.33
2018-02-19T02:53:14.569Z,31.07
2018-02-19T02:55:43.133Z,30.67
2018-02-19T02:58:11.538Z,32.20
2018-02-19T03:00:39.902Z,31.53
2018-02-19T03:03:08.259Z,31.30
2018-02-19T03:05:37.491Z,30.40
2018-02-19T03:08:06.036Z,29.80
2018-02-19T03:10:35.170Z,30.37
2018-02-19T03:13:03.590Z,30.57
2018-02-19T03:15:32.767Z,28.30
2018-02-19T03:18:01.330Z,31.30
2018-02-19T03:20:29.765Z,30.80
2018-02-19T03:22:58.920Z,28.63
2018-02-19T03:25:27.331Z,28.63
2018-02-19T03:27:56.635Z,29.00
2018-02-19T03:30:26.037Z,31.23
2018-02-19T03:32:55.175Z,29.37
2018-02-19T03:35:23.682Z,31.23
2018-02-19T03:37:52.186Z,30.00
2018-02-19T03:40:21.486Z,30.17
2018-02-19T03:42:50.838Z,30.93
2018-02-19T03:45:19.417Z,30.13
2018-02-19T03:47:47.925Z,29.30
2018-02-19T03:50:16.399Z,29.77
2018-02-19T03:52:44.790Z,30.87
2018-02-19T03:55:13.203Z,31.47
2018-02-19T03:57:42.335Z,29.80
2018-02-19T04:00:10.042Z,27.70
2018-02-19T04:02:38.430Z,30.70
2018-02-19T04:05:07.711Z,28.03
2018-02-19T04:07:35.763Z,29.90
2018-02-19T04:10:03.459Z,29.47
2018-02-19T04:12:32.609Z,30.40
2018-02-19T04:15:00.966Z,29.47
2018-02-19T04:17:29.586Z,28.83
2018-02-19T04:19:58.050Z,30.87
2018-02-19T04:22:26.553Z,31.80
2018-02-19T04:24:54.923Z,30.37
2018-02-19T04:27:23.291Z,29.63
2018-02-19T04:29:51.672Z,27.93
2018-02-19T04:32:20.080Z,28.43
2018-02-19T04:34:49.236Z,28.60
2018-02-19T04:37:17.829Z,29.73
2018-02-19T04:39:46.294Z,28.73
2018-02-19T04:42:14.497Z,29.90
2018-02-19T04:44:44.680Z,27.40
2018-02-19T04:47:13.036Z,27.70
2018-02-19T04:49:41.405Z,27.97
2018-02-19T04:52:10.740Z,27.67
2018-02-19T04:54:39.204Z,28.53
2018-02-19T04:57:07.389Z,27.00
2018-02-19T04:59:35.920Z,27.33
2018-02-19T05:02:04.460Z,29.30
2018-02-19T05:04:32.905Z,28.90
2018-02-19T05:07:02.049Z,28.40
2018-02-19T05:09:30.582Z,26.93
2018-02-19T05:11:59.726Z,26.57
2018-02-19T05:14:28.133Z,26.20
2018-02-19T05:16:56.740Z,27.17
2018-02-19T05:19:26.014Z,27.33
2018-02-19T05:21:54.367Z,26.73
2018-02-19T05:24:22.863Z,25.90
2018-02-19T05:26:51.378Z,27.20
2018-02-19T05:29:20.518Z,27.70
2018-02-19T05:31:49.370Z,26.67
2018-02-19T05:34:18.500Z,26.97
2018-02-19T05:36:47.023Z,25.70
2018-02-19T05:39:15.372Z,28.07
2018-02-19T05:41:43.770Z,27.63
2018-02-19T05:44:12.192Z,25.43
2018-02-19T05:46:40.830Z,25.30
2018-02-19T05:49:09.220Z,26.57
2018-02-19T05:51:37.574Z,24.90
2018-02-19T05:54:06.030Z,26.60
2018-02-19T05:56:34.453Z,26.53
2018-02-19T05:59:02.804Z,25.50
2018-02-19T06:01:32.416Z,24.87
2018-02-19T06:04:00.824Z,26.33
2018-02-19T06:06:29.240Z,25.80
2018-02-19T06:08:58.549Z,25.00
2018-02-19T06:11:26.967Z,25.43
2018-02-19T06:13:55.718Z,24.93
2018-02-19T06:16:24.112Z,24.07
2018-02-19T06:18:52.485Z,26.30
2018-02-19T06:21:20.880Z,24.13
2018-02-19T06:23:48.629Z,25.00
2018-02-19T06:26:17.911Z,25.90
2018-02-19T06:28:46.284Z,23.67
2018-02-19T06:31:14.695Z,23.20
2018-02-19T06:33:43.348Z,25.90
2018-02-19T06:36:11.702Z,23.63
2018-02-19T06:38:40.997Z,23.27
2018-02-19T06:41:10.232Z,24.40
2018-02-19T06:43:38.757Z,23.67
2018-02-19T06:46:07.112Z,23.73
2018-02-19T06:48:35.701Z,23.93
2018-02-19T06:51:04.098Z,23.53
2018-02-19T06:53:32.480Z,24.63
2018-02-19T06:56:01.605Z,23.97
2018-02-19T06:58:29.996Z,23.97
2018-02-19T07:00:58.382Z,24.13
2018-02-19T07:03:26.739Z,25.20
2018-02-19T07:05:55.333Z,25.47
2018-02-19T07:08:23.684Z,22.77
2018-02-19T07:10:52.818Z,23.47
2018-02-19T07:13:21.975Z,23.90
2018-02-19T07:15:51.264Z,22.80
2018-02-19T07:18:20.379Z,23.43
2018-02-19T07:20:48.897Z,23.77
2018-02-19T07:23:17.244Z,23.30
2018-02-19T07:25:45.603Z,22.70
2018-02-19T07:28:14.748Z,24.93
2018-02-19T07:30:43.150Z,24.80
2018-02-19T07:33:11.516Z,24.07
2018-02-19T07:35:40.117Z,23.70
2018-02-19T07:38:08.476Z,22.77
2018-02-19T07:40:36.861Z,23.50
2018-02-19T07:43:05.280Z,23.63
2018-02-19T07:45:33.662Z,24.20
2018-02-19T07:48:02.143Z,24.00
2018-02-19T07:50:30.507Z,23.90
2018-02-19T07:52:59.060Z,22.63
2018-02-19T07:55:28.341Z,23.90
2018-02-19T07:57:56.724Z,23.30
2018-02-19T08:00:25.096Z,23.67
2018-02-19T08:02:53.550Z,23.57
2018-02-19T08:05:22.077Z,22.70
2018-02-19T08:07:50.456Z,23.00
2018-02-19T08:10:18.910Z,22.13
2018-02-19T08:12:47.277Z,22.20
2018-02-19T08:15:15.637Z,23.93
2018-02-19T08:17:44.172Z,22.93
2018-02-19T08:20:12.732Z,22.20
2018-02-19T08:22:41.127Z,24.87
2018-02-19T08:25:10.115Z,23.10
2018-02-19T08:27:38.486Z,22.93
2018-02-19T08:30:06.883Z,22.37
2018-02-19T08:32:35.995Z,22.50
2018-02-19T08:35:05.141Z,23.33
2018-02-19T08:37:33.484Z,24.20
2018-02-19T08:40:02.603Z,22.07
2018-02-19T08:42:30.962Z,21.83
2018-02-19T08:45:00.092Z,21.43
2018-02-19T08:47:28.449Z,24.47
2018-02-19T08:49:56.812Z,22.77
2018-02-19T08:52:25.943Z,22.13
2018-02-19T08:54:54.326Z,22.37
2018-02-19T08:57:22.700Z,23.70
2018-02-19T08:59:51.066Z,23.10
2018-02-19T09:02:19.485Z,22.03
2018-02-19T09:04:47.870Z,22.20
2018-02-19T09:07:16.351Z,22.17
2018-02-19T09:09:44.724Z,22.43
2018-02-19T09:12:13.090Z,21.17
2018-02-19T09:14:41.488Z,22.73
2018-02-19T09:17:09.900Z,22.17
2018-02-19T09:19:38.586Z,24.53
2018-02-19T09:22:06.961Z,23.50
2018-02-19T09:24:35.360Z,21.80
2018-02-19T09:27:04.020Z,22.80
2018-02-19T09:29:32.451Z,24.33
2018-02-19T09:32:00.898Z,23.20
2018-02-19T09:34:29.255Z,24.70
2018-02-19T09:36:57.826Z,21.70
2018-02-19T09:39:26.938Z,22.40
2018-02-19T09:41:55.330Z,22.97
2018-02-19T09:44:24.183Z,25.43
2018-02-19T09:46:52.574Z,24.60
2018-02-19T09:49:22.051Z,25.70
2018-02-19T09:51:50.502Z,23.07
2018-02-19T09:54:19.055Z,23.07
2018-02-19T09:56:47.411Z,23.80
2018-02-19T09:59:16.554Z,23.10
2018-02-19T10:01:44.913Z,23.50
2018-02-19T10:04:13.301Z,24.80
2018-02-19T10:06:42.097Z,24.00
2018-02-19T10:09:10.462Z,23.43
2018-02-19T10:11:38.818Z,23.60
2018-02-19T10:14:07.251Z,23.10
2018-02-19T10:16:35.695Z,24.67
2018-02-19T10:19:04.130Z,23.33
2018-02-19T10:21:33.289Z,23.67
2018-02-19T10:24:01.637Z,23.83
2018-02-19T10:26:29.992Z,23.67
2018-02-19T10:28:59.131Z,23.67
2018-02-19T10:31:27.480Z,24.27
2018-02-19T10:33:56.603Z,25.80
2018-02-19T10:36:31.039Z,21.70
2018-02-19T10:38:59.671Z,24.33
2018-02-19T10:41:28.809Z,23.37
2018-02-19T10:43:57.337Z,23.03
2018-02-19T10:46:26.523Z,24.10
2018-02-19T10:48:54.921Z,24.00
2018-02-19T10:51:24.059Z,25.23
2018-02-19T10:53:52.413Z,23.30
2018-02-19T10:56:20.781Z,22.93
2018-02-19T10:58:49.915Z,23.10
2018-02-19T11:01:18.332Z,23.57
2018-02-19T11:03:46.684Z,23.77
2018-02-19T11:06:15.054Z,23.77
2018-02-19T11:08:43.446Z,23.93
2018-02-19T11:11:11.904Z,23.53
2018-02-19T11:13:40.274Z,21.57
2018-02-19T11:16:08.637Z,23.10
2018-02-19T11:18:37.043Z,22.80
2018-02-19T11:21:05.488Z,24.23
2018-02-19T11:23:34.632Z,22.70
2018-02-19T11:26:03.008Z,23.60
2018-02-19T11:28:31.524Z,23.57
2018-02-19T11:31:00.775Z,22.70
2018-02-19T11:33:29.221Z,22.70
2018-02-19T11:35:58.343Z,23.67
2018-02-19T11:38:26.740Z,23.30
2018-02-19T11:40:55.119Z,23.67
2018-02-19T11:43:23.471Z,21.70
2018-02-19T11:45:52.016Z,23.30
2018-02-19T11:48:21.164Z,25.63
2018-02-19T11:50:49.861Z,22.90
2018-02-19T11:53:18.275Z,23.23
2018-02-19T11:55:48.102Z,23.97
2018-02-19T11:58:18.089Z,23.07
2018-02-19T12:00:46.560Z,24.23
2018-02-19T12:03:14.931Z,24.10
2018-02-19T12:05:43.956Z,23.47
2018-02-19T12:08:13.226Z,24.50
2018-02-19T12:10:41.778Z,22.53
2018-02-19T12:13:10.201Z,23.10
2018-02-19T12:15:38.557Z,22.70
2018-02-19T12:18:07.017Z,22.03
2018-02-19T12:20:36.051Z,23.37
2018-02-19T12:23:05.184Z,23.47
2018-02-19T12:25:33.710Z,22.37
2018-02-19T12:28:02.205Z,23.00
2018-02-19T12:30:30.593Z,23.83
2018-02-19T12:32:58.954Z,22.23
2018-02-19T12:35:27.578Z,23.33
2018-02-19T12:37:56.724Z,23.07
2018-02-19T12:40:25.205Z,22.50
2018-02-19T12:42:53.673Z,23.17
2018-02-19T12:45:22.016Z,21.00
2018-02-19T12:47:50.404Z,22.73
2018-02-19T12:50:19.036Z,21.97
2018-02-19T12:52:47.473Z,23.10
2018-02-19T12:55:16.508Z,22.07
2018-02-19T12:57:44.876Z,22.40
2018-02-19T13:00:13.246Z,23.07
2018-02-19T13:02:41.705Z,22.53
2018-02-19T13:05:10.164Z,21.97
2018-02-19T13:07:38.641Z,23.10
2018-02-19T13:10:07.184Z,22.13
2018-02-19T13:12:35.559Z,22.87
2018-02-19T13:15:04.560Z,23.33
2018-02-19T13:17:32.945Z,22.33
2018-02-19T13:20:01.575Z,22.33
2018-02-19T13:22:30.080Z,22.70
2018-02-19T13:24:58.493Z,22.53
2018-02-19T13:27:26.863Z,23.70
2018-02-19T13:29:55.236Z,21.37
2018-02-19T13:32:23.587Z,24.43
2018-02-19T13:34:51.999Z,24.10
2018-02-19T13:37:20.368Z,23.20
2018-02-19T13:39:48.727Z,23.33
2018-02-19T13:42:17.092Z,25.33
2018-02-19T13:44:46.662Z,23.57
2018-02-19T13:47:15.810Z,22.83
2018-02-19T13:49:44.174Z,23.53
2018-02-19T13:52:12.559Z,24.43
2018-02-19T13:54:40.934Z,23.77
2018-02-19T13:57:09.304Z,23.83
2018-02-19T13:59:38.415Z,24.00
2018-02-19T14:02:06.797Z,24.90
2018-02-19T14:04:35.364Z,22.53
2018-02-19T14:07:03.737Z,23.83
2018-02-19T14:09:32.434Z,24.80
2018-02-19T14:12:00.952Z,23.47
2018-02-19T14:14:29.335Z,23.70
2018-02-19T14:16:58.484Z,22.83
2018-02-19T14:19:26.855Z,23.47
2018-02-19T14:21:55.227Z,23.30
2018-02-19T14:24:24.121Z,22.17
2018-02-19T14:26:52.374Z,23.67
2018-02-19T14:29:20.951Z,25.07
2018-02-19T14:31:50.078Z,24.90
2018-02-19T14:34:18.439Z,23.93
2018-02-19T14:36:46.812Z,23.13
2018-02-19T14:39:15.170Z,23.50
2018-02-19T14:41:44.302Z,22.50
2018-02-19T14:44:12.715Z,22.80
2018-02-19T14:46:41.079Z,22.47
2018-02-19T14:49:09.459Z,24.40
2018-02-19T14:51:37.921Z,23.33
2018-02-19T14:54:06.296Z,23.10
2018-02-19T14:56:34.779Z,21.23
2018-02-19T14:59:03.137Z,23.00
2018-02-19T15:01:34.739Z,23.03
2018-02-19T15:04:03.127Z,22.57
2018-02-19T15:06:31.511Z,21.23
2018-02-19T15:09:00.052Z,23.67
2018-02-19T15:11:28.598Z,21.23
2018-02-19T15:13:57.744Z,22.50
2018-02-19T15:16:26.338Z,22.60
2018-02-19T15:18:54.720Z,22.10
2018-02-19T15:21:23.090Z,23.27
2018-02-19T15:23:51.481Z,20.83
2018-02-19T15:26:20.030Z,22.27
2018-02-19T15:28:48.426Z,20.50
2018-02-19T15:31:16.824Z,20.60
2018-02-19T15:33:45.517Z,22.20
2018-02-19T15:36:13.931Z,21.30
2018-02-19T15:38:42.292Z,19.90
2018-02-19T15:41:11.413Z,22.83
2018-02-19T15:43:39.801Z,22.67
2018-02-19T15:46:08.168Z,21.40
2018-02-19T15:48:36.609Z,20.57
2018-02-19T15:51:04.976Z,21.63
2018-02-19T15:53:33.379Z,22.23
2018-02-19T15:56:02.663Z,22.57
2018-02-19T15:58:31.037Z,19.93
2018-02-19T16:01:00.524Z,21.93
2018-02-19T16:03:28.925Z,19.17
2018-02-19T16:05:57.287Z,22.40
2018-02-19T16:08:26.108Z,21.50
2018-02-19T16:10:55.283Z,22.13
2018-02-19T16:13:23.640Z,21.87
2018-02-19T16:15:52.016Z,22.70
2018-02-19T16:18:20.384Z,20.73
2018-02-19T16:20:48.774Z,21.07
2018-02-19T16:23:17.280Z,20.53
2018-02-19T16:25:45.704Z,21.97
2018-02-19T16:28:14.260Z,21.70
2018-02-19T16:30:43.617Z,20.07
2018-02-19T16:33:12.189Z,20.23
2018-02-19T16:35:40.590Z,21.87
2018-02-19T16:38:08.979Z,20.93
2018-02-19T16:40:37.569Z,23.03
2018-02-19T16:43:07.081Z,23.37
2018-02-19T16:45:36.385Z,21.73
2018-02-19T16:48:05.547Z,22.30
2018-02-19T16:50:34.034Z,22.77
2018-02-19T16:53:02.644Z,22.43
2018-02-19T16:55:31.808Z,25.00
2018-02-19T16:58:00.341Z,22.77
2018-02-19T17:00:29.101Z,22.60
2018-02-19T17:02:58.369Z,22.00
2018-02-19T17:05:26.748Z,25.40
2018-02-19T17:07:55.124Z,23.17
2018-02-19T17:10:23.806Z,22.07
2018-02-19T17:12:52.341Z,23.07
2018-02-19T17:15:20.783Z,23.70
2018-02-19T17:17:49.412Z,23.03
2018-02-19T17:20:17.958Z,21.10
2018-02-19T17:22:46.933Z,22.87
2018-02-19T17:25:15.304Z,22.23
2018-02-19T17:27:43.803Z,24.43
2018-02-19T17:30:12.185Z,23.77
2018-02-19T17:32:40.617Z,23.70
2018-02-19T17:35:09.500Z,21.83
2018-02-19T17:37:38.112Z,22.20
2018-02-19T17:40:06.546Z,23.33
2018-02-19T17:42:34.959Z,23.23
2018-02-19T17:45:03.936Z,23.07
2018-02-19T17:47:32.487Z,24.80
2018-02-19T17:50:01.659Z,21.87
2018-02-19T17:52:30.100Z,22.93
2018-02-19T17:54:58.643Z,24.07
2018-02-19T17:57:27.773Z,24.03
2018-02-19T17:59:56.221Z,24.47
2018-02-19T18:02:25.416Z,23.13
2018-02-19T18:04:54.811Z,24.77
2018-02-19T18:07:24.377Z,22.43
2018-02-19T18:09:52.892Z,24.03
2018-02-19T18:12:21.431Z,25.37
2018-02-19T18:14:49.955Z,23.17
2018-02-19T18:17:18.439Z,21.20
2018-02-19T18:19:46.500Z,23.83
2018-02-19T18:22:14.889Z,23.37
2018-02-19T18:24:44.024Z,24.87
2018-02-19T18:27:12.460Z,23.60
2018-02-19T18:29:40.899Z,23.20
2018-02-19T18:32:09.308Z,23.60
2018-02-19T18:34:37.693Z,24.53
2018-02-19T18:37:06.142Z,21.50
2018-02-19T18:39:34.642Z,23.80
2018-02-19T18:42:03.030Z,24.33
2018-02-19T18:44:31.529Z,25.20
2018-02-19T18:47:00.764Z,25.17
2018-02-19T18:49:29.151Z,25.57
2018-02-19T18:51:57.541Z,25.23
2018-02-19T18:54:25.916Z,23.00
2018-02-19T18:56:54.296Z,23.30
2018-02-19T18:59:22.680Z,22.63
2018-02-19T19:01:51.224Z,22.40
2018-02-19T19:04:19.928Z,22.47
2018-02-19T19:06:48.508Z,23.17
2018-02-19T19:09:28.124Z,22.23
2018-02-19T19:11:56.499Z,21.70
2018-02-19T19:14:25.072Z,22.23
2018-02-19T19:16:54.317Z,22.07
2018-02-19T19:19:22.781Z,25.10
2018-02-19T19:21:51.166Z,21.83
2018-02-19T19:24:19.604Z,23.83
2018-02-19T19:26:48.924Z,22.90
2018-02-19T19:29:17.344Z,24.33
2018-02-19T19:31:45.716Z,23.93
2018-02-19T19:34:14.111Z,24.27
2018-02-19T19:36:42.624Z,23.37
2018-02-19T19:39:11.982Z,25.23
2018-02-19T19:41:40.372Z,23.40
2018-02-19T19:44:08.739Z,23.67
2018-02-19T19:46:37.158Z,24.10
2018-02-19T19:49:05.553Z,24.30
2018-02-19T19:51:34.224Z,25.20
2018-02-19T19:54:03.659Z,26.40
2018-02-19T19:56:32.036Z,24.47
2018-02-19T19:59:00.415Z,25.50
2018-02-19T20:01:28.841Z,25.20
2018-02-19T20:03:57.984Z,24.03
2018-02-19T20:06:26.552Z,24.03
2018-02-19T20:08:54.852Z,25.50
2018-02-19T20:11:23.236Z,24.50
2018-02-19T20:13:51.812Z,24.03
2018-02-19T20:16:20.606Z,24.23
2018-02-19T20:18:49.038Z,25.40
2018-02-19T20:21:17.498Z,25.23
2018-02-19T20:23:46.063Z,24.63
2018-02-19T20:26:14.627Z,24.77
2018-02-19T20:28:43.034Z,26.20
2018-02-19T20:31:11.543Z,27.00
2018-02-19T20:33:40.068Z,25.80
2018-02-19T20:36:08.564Z,25.27
2018-02-19T20:38:37.012Z,26.10
2018-02-19T20:41:05.413Z,26.90
2018-02-19T20:43:34.088Z,28.30
2018-02-19T20:46:02.612Z,25.63
2018-02-19T20:48:31.185Z,25.97
2018-02-19T20:50:59.556Z,25.53
2018-02-19T20:53:28.229Z,25.23
2018-02-19T20:55:56.721Z,27.00
2018-02-19T20:58:25.109Z,26.73
2018-02-19T21:00:53.522Z,26.30
2018-02-19T21:03:22.768Z,29.33
2018-02-19T21:05:52.974Z,33.70
2018-02-19T21:08:21.348Z,31.90
2018-02-19T21:10:50.646Z,30.80
2018-02-19T21:13:19.068Z,28.40
2018-02-19T21:15:47.523Z,25.80
2018-02-19T21:18:15.945Z,27.70
2018-02-19T21:20:45.155Z,26.87
2018-02-19T21:23:14.336Z,27.30
2018-02-19T21:25:42.777Z,26.07
2018-02-19T21:28:11.201Z,26.93
2018-02-19T21:30:40.625Z,25.50
2018-02-19T21:33:09.049Z,27.13
2018-02-19T21:35:37.460Z,25.80
2018-02-19T21:38:07.002Z,25.97
2018-02-19T21:40:35.450Z,25.53
2018-02-19T21:43:04.897Z,25.37
2018-02-19T21:45:33.942Z,27.00
2018-02-19T21:48:03.111Z,26.83
2018-02-19T21:50:31.549Z,26.77
2018-02-19T21:53:00.171Z,27.03
2018-02-19T21:55:28.534Z,24.83
2018-02-19T21:57:57.070Z,25.40
2018-02-19T22:00:26.256Z,25.63
2018-02-19T22:02:55.403Z,27.73
2018-02-19T22:05:23.764Z,26.10
2018-02-19T22:07:52.256Z,26.00
2018-02-19T22:10:20.840Z,26.93
2018-02-19T22:12:49.219Z,26.40
2018-02-19T22:15:17.596Z,26.20
2018-02-19T22:17:45.992Z,26.23
2018-02-19T22:20:14.712Z,24.53
2018-02-19T22:22:43.448Z,24.80
2018-02-19T22:25:11.825Z,27.60
2018-02-19T22:27:40.214Z,25.77
2018-02-19T22:30:08.623Z,27.00
2018-02-19T22:32:37.055Z,26.33
2018-02-19T22:35:05.425Z,25.30
2018-02-19T22:37:34.327Z,27.07
2018-02-19T22:40:02.767Z,27.23
2018-02-19T22:42:31.917Z,25.97
2018-02-19T22:45:00.440Z,25.20
2018-02-19T22:47:29.734Z,25.13
2018-02-19T22:49:58.890Z,25.00
2018-02-19T22:52:27.288Z,24.63
2018-02-19T22:54:55.840Z,24.90
2018-02-19T22:57:24.389Z,24.93
2018-02-19T22:59:53.589Z,24.40
2018-02-19T23:02:22.934Z,25.83
2018-02-19T23:04:52.264Z,26.87
2018-02-19T23:07:20.654Z,26.20
2018-02-19T23:09:49.817Z,26.07
2018-02-19T23:12:18.326Z,26.47
2018-02-19T23:14:46.776Z,25.30
2018-02-19T23:17:15.201Z,24.70
2018-02-19T23:19:44.389Z,26.80
2018-02-19T23:22:13.563Z,26.67
2018-02-19T23:24:42.014Z,26.73
2018-02-19T23:27:10.429Z,24.90
2018-02-19T23:29:38.912Z,24.37
2018-02-19T23:32:07.472Z,26.37
2018-02-19T23:34:35.175Z,24.27
2018-02-19T23:37:04.368Z,22.60
2018-02-19T23:39:33.855Z,24.93
2018-02-19T23:42:02.371Z,23.07
2018-02-19T23:44:30.922Z,26.13
2018-02-19T23:47:00.802Z,22.73
2018-02-19T23:49:29.212Z,25.23
2018-02-19T23:51:57.881Z,23.77
2018-02-19T23:54:31.790Z,23.67
2018-02-19T23:57:00.319Z,22.97
2018-02-19T23:59:28.688Z,23.60
